| time (UTC) | temp F | wind direction | speed MPH | gust MPH | rain 1hr in | rain 24hr in | rain mn in | humidity % | barometer mb |
| 20260506080122 | 61 | 0.0 | 0.0 | 0.00 | 0.00 | 0.00 | 69 | 1004.6 | |
| 20260506073017 | 61 | 0.0 | 0.0 | 0.00 | 0.00 | 0.00 | 68 | 1004.8 | |
| 20260506071516 | 61 | 0.0 | 0.0 | 0.00 | 0.00 | 0.00 | 67 | 1004.8 | |
| 20260506061509 | 61 | 0.0 | 0.0 | 0.00 | 0.00 | 0.00 | 66 | 1005.5 | |
| 20260506044601 | 62 | 0.0 | 0.0 | 0.00 | 0.00 | 0.00 | 63 | 1005.9 | |
| 20260506043101 | 62 | 0.0 | 0.0 | 0.00 | 0.00 | 0.00 | 63 | 1005.9 | |
| 20260506041605 | 63 | 0.0 | 0.0 | 0.00 | 0.00 | 0.00 | 62 | 1006.0 | |
| 20260506040055 | 63 | 0.0 | 0.0 | 0.00 | 0.00 | 0.00 | 61 | 1006.0 | |
| 20260506034556 | 63 | 0.0 | 0.0 | 0.00 | 0.00 | 0.00 | 60 | 1006.0 | |
| 20260506033054 | 64 | 0.0 | 0.0 | 0.00 | 0.00 | 0.00 | 59 | 1006.0 | |
| 20260506031554 | 64 | 0.0 | 0.0 | 0.00 | 0.00 | 0.00 | 58 | 1005.9 | |
| 20260506030053 | 65 | 0.0 | 0.0 | 0.00 | 0.00 | 0.00 | 57 | 1006.0 | |
| 20260506024556 | 65 | 0.0 | 0.0 | 0.00 | 0.00 | 0.00 | 56 | 1006.0 | |
| 20260506023107 | 66 | 0.0 | 0.0 | 0.00 | 0.00 | 0.00 | 56 | 1006.1 | |
| 20260506021552 | 67 | 0.0 | 0.0 | 0.00 | 0.00 | 0.00 | 54 | 1006.2 | |
| 20260506020055 | 67 | 0.0 | 0.0 | 0.00 | 0.00 | 0.00 | 52 | 1006.1 | |
| 20260506014551 | 67 | 0.0 | 0.0 | 0.00 | 0.00 | 0.00 | 53 | 1005.9 | |
| 20260506013055 | 68 | 0.0 | 0.0 | 0.00 | 0.00 | 0.00 | 53 | 1005.7 | |
| 20260506011550 | 68 | 0.0 | 0.0 | 0.00 | 0.00 | 0.00 | 52 | 1005.7 | |
| 20260506010049 | 68 | 0.0 | 0.0 | 0.00 | 0.00 | 0.00 | 52 | 1005.5 | |
| 20260506004547 | 68 | 0.0 | 0.0 | 0.00 | 0.00 | 0.00 | 50 | 1005.4 | |
| 20260506003050 | 69 | 0.0 | 0.0 | 0.00 | 0.00 | 0.00 | 49 | 1005.2 | |
| 20260506001554 | 69 | 0.0 | 0.0 | 0.00 | 0.00 | 0.00 | 49 | 1005.1 | |
| 20260506000052 | 70 | 0.0 | 0.0 | 0.00 | 0.00 | 0.00 | 50 | 1005.1 | |
| 20260505234546 | 70 | 0.0 | 0.0 | 0.00 | 0.00 | 0.00 | 50 | 1005.1 | |
| 20260505233051 | 70 | 0.0 | 0.0 | 0.00 | 0.00 | 0.00 | 50 | 1005.0 | |
| 20260505231547 | 71 | 0.0 | 0.0 | 0.00 | 0.00 | 0.00 | 49 | 1005.0 | |
| 20260505230110 | 71 | 0.0 | 0.0 | 0.00 | 0.00 | 0.00 | 47 | 1004.9 | |
| 20260505224544 | 71 | 0.0 | 0.0 | 0.00 | 0.00 | 0.00 | 47 | 1004.7 | |
| 20260505223044 | 72 | 0.0 | 0.0 | 0.00 | 0.00 | 0.00 | 46 | 1004.8 | |
| 20260505221546 | 72 | 0.0 | 0.0 | 0.00 | 0.00 | 0.00 | 47 | 1004.6 | |
| 20260505220051 | 73 | 0.0 | 0.0 | 0.00 | 0.00 | 0.00 | 46 | 1004.5 | |
| 20260505214540 | 74 | 0.0 | 0.0 | 0.00 | 0.00 | 0.00 | 44 | 1004.4 | |
| 20260505213039 | 74 | 0.0 | 0.0 | 0.00 | 0.00 | 0.00 | 42 | 1004.3 | |
| 20260505211542 | 75 | 0.0 | 0.0 | 0.00 | 0.00 | 0.00 | 42 | 1004.2 | |
| 20260505210038 | 76 | 0.0 | 0.0 | 0.00 | 0.00 | 0.00 | 40 | 1004.1 | |
| 20260505204537 | 77 | 0.0 | 0.0 | 0.00 | 0.00 | 0.00 | 36 | 1003.9 | |
| 20260505203036 | 78 | 0.0 | 0.0 | 0.00 | 0.00 | 0.00 | 36 | 1004.1 | |
| 20260505201535 | 77 | 0.0 | 0.0 | 0.00 | 0.00 | 0.00 | 35 | 1004.1 | |
| 20260505200040 | 77 | 0.0 | 0.0 | 0.00 | 0.00 | 0.00 | 37 | 1004.0 | |
| 20260505194531 | 77 | 0.0 | 0.0 | 0.00 | 0.00 | 0.00 | 36 | 1004.4 | |
| 20260505193034 | 78 | 0.0 | 0.0 | 0.00 | 0.00 | 0.00 | 36 | 1004.6 | |
| 20260505191535 | 78 | 0.0 | 0.0 | 0.00 | 0.00 | 0.00 | 36 | 1004.7 | |
| 20260505190027 | 77 | 0.0 | 0.0 | 0.00 | 0.00 | 0.00 | 39 | 1004.8 | |
| 20260505184527 | 77 | 0.0 | 0.0 | 0.00 | 0.00 | 0.00 | 37 | 1005.1 | |
| 20260505183033 | 77 | 0.0 | 0.0 | 0.00 | 0.00 | 0.00 | 40 | 1005.2 | |
| 20260505181525 | 77 | 0.0 | 0.0 | 0.00 | 0.00 | 0.00 | 40 | 1005.1 | |
| 20260505180022 | 76 | 0.0 | 0.0 | 0.00 | 0.00 | 0.00 | 44 | 1005.7 | |
| 20260505174521 | 76 | 0.0 | 0.0 | 0.00 | 0.00 | 0.00 | 45 | 1005.7 | |
| 20260505173019 | 78 | 0.0 | 0.0 | 0.00 | 0.00 | 0.00 | 42 | 1005.8 | |
| 20260505171519 | 78 | 0.0 | 0.0 | 0.00 | 0.00 | 0.00 | 42 | 1005.9 | |
| 20260505170022 | 78 | 0.0 | 0.0 | 0.00 | 0.00 | 0.00 | 45 | 1005.6 | |
| 20260505164514 | 77 | 0.0 | 0.0 | 0.00 | 0.00 | 0.00 | 45 | 1005.9 | |
| 20260505163011 | 76 | 0.0 | 0.0 | 0.00 | 0.00 | 0.00 | 46 | 1006.2 | |
| 20260505161523 | 76 | 0.0 | 0.0 | 0.00 | 0.00 | 0.00 | 50 | 1006.4 | |
| 20260505153059 | 73 | 0.0 | 0.0 | 0.00 | 0.00 | 0.00 | 54 | 1007.0 | |
| 20260505151555 | 72 | 0.0 | 0.0 | 0.00 | 0.00 | 0.00 | 55 | 1006.9 | |
| 20260505150104 | 71 | 0.0 | 0.0 | 0.00 | 0.00 | 0.00 | 56 | 1007.0 | |
| 20260505124526 | 62 | 0.0 | 0.0 | 0.00 | 0.00 | 0.00 | 72 | 1007.2 | |
| 20260505123022 | 60 | 0.0 | 0.0 | 0.00 | 0.00 | 0.00 | 74 | 1007.2 | |
| 20260505121531 | 59 | 0.0 | 0.0 | 0.00 | 0.00 | 0.00 | 75 | 1007.4 | |
| 20260505120015 | 57 | 0.0 | 0.0 | 0.00 | 0.00 | 0.00 | 79 | 1007.3 | |
| 20260505114512 | 56 | 0.0 | 0.0 | 0.00 | 0.00 | 0.00 | 82 | 1007.4 | |
| 20260505113013 | 55 | 0.0 | 0.0 | 0.00 | 0.00 | 0.00 | 85 | 1007.1 | |
| 20260505111511 | 53 | 0.0 | 0.0 | 0.00 | 0.00 | 0.00 | 86 | 1006.9 | |
| 20260505101510 | 52 | 0.0 | 0.0 | 0.00 | 0.00 | 0.00 | 88 | 1006.9 | |
| 20260505100016 | 52 | 0.0 | 0.0 | 0.00 | 0.00 | 0.00 | 88 | 1006.7 | |
| 20260505094506 | 52 | 0.0 | 0.0 | 0.00 | 0.00 | 0.00 | 87 | 1006.8 | |
| 20260505093004 | 53 | 0.0 | 0.0 | 0.00 | 0.00 | 0.00 | 87 | 1006.7 | |
| 20260505091502 | 53 | 0.0 | 0.0 | 0.00 | 0.00 | 0.00 | 85 | 1006.9 | |
| 20260505090106 | 54 | 0.0 | 0.0 | 0.00 | 0.00 | 0.00 | 81 | 1006.9 | |
| 20260505084559 | 55 | 0.0 | 0.0 | 0.00 | 0.00 | 0.00 | 72 | 1007.0 | |
| 20260505083102 | 54 | 0.0 | 0.0 | 0.00 | 0.00 | 0.00 | 71 | 1006.7 | |
| 20260505081600 | 54 | 0.0 | 0.0 | 0.00 | 0.00 | 0.00 | 71 | 1006.6 |